Time;durP1;ratioP1;P1;durP2;ratioP2;P2;SDS_P1;SDS_P2;PMS_P1;PMS_P2;Temp;Humidity;BMP_temperature;BMP_pressure;BME280_temperature;BME280_humidity;BME280_pressure;Samples;Min_cycle;Max_cycle;Signal;HPM_P1;HPM_P2
2022/11/22 00:00:13;;;;;;;10.23;2.15;;;;;;;;;;4997432;28;20022;-68
2022/11/22 00:02:38;;;;;;;8.23;1.40;;;;;;;;;;4993880;28;20418;-69
2022/11/22 00:05:03;;;;;;;4.30;1.30;;;;;;;;;;4986841;28;20463;-72
2022/11/22 00:07:28;;;;;;;6.10;1.92;;;;;;;;;;4998586;28;20254;-69
2022/11/22 00:09:53;;;;;;;4.32;1.30;;;;;;;;;;4995461;28;20450;-68
2022/11/22 00:12:19;;;;;;;6.47;1.67;;;;;;;;;;5001463;28;20029;-68
2022/11/22 00:14:44;;;;;;;5.75;1.60;;;;;;;;;;4992084;28;20026;-68
2022/11/22 00:17:09;;;;;;;4.72;1.55;;;;;;;;;;4995835;28;20089;-71
2022/11/22 00:19:38;;;;;;;0.82;0.75;;;;;;;;;;4995148;28;20014;-69
2022/11/22 00:22:03;;;;;;;6.88;1.63;;;;;;;;;;4999071;28;20018;-68
2022/11/22 00:24:28;;;;;;;7.47;0.90;;;;;;;;;;4996365;28;20037;-72
2022/11/22 00:26:53;;;;;;;2.00;1.07;;;;;;;;;;5001224;28;20253;-69
2022/11/22 00:29:18;;;;;;;3.83;2.05;;;;;;;;;;4991850;28;20305;-71
2022/11/22 00:31:44;;;;;;;7.90;1.33;;;;;;;;;;4990511;28;20031;-69
2022/11/22 00:34:09;;;;;;;8.55;1.55;;;;;;;;;;4990395;28;20645;-73
2022/11/22 00:36:34;;;;;;;8.27;2.20;;;;;;;;;;4997388;28;20025;-73
2022/11/22 00:38:59;;;;;;;5.50;1.93;;;;;;;;;;4993872;28;20780;-72
2022/11/22 00:41:24;;;;;;;3.72;0.75;;;;;;;;;;4993428;28;20357;-70
2022/11/22 00:43:49;;;;;;;1.52;0.85;;;;;;;;;;4993907;28;20041;-71
2022/11/22 00:46:15;;;;;;;7.32;1.77;;;;;;;;;;4985351;28;20033;-69
2022/11/22 00:48:40;;;;;;;5.18;1.38;;;;;;;;;;4988748;28;20034;-71
2022/11/22 00:51:05;;;;;;;7.45;1.05;;;;;;;;;;4994363;28;20026;-69
2022/11/22 00:53:30;;;;;;;5.97;0.95;;;;;;;;;;4998559;28;20022;-69
2022/11/22 00:55:55;;;;;;;8.15;1.80;;;;;;;;;;5000375;28;20053;-69
2022/11/22 00:58:21;;;;;;;5.75;1.30;;;;;;;;;;4986142;28;20030;-72
2022/11/22 01:00:46;;;;;;;11.80;2.43;;;;;;;;;;4989868;28;20072;-69
2022/11/22 01:03:12;;;;;;;2.42;0.73;;;;;;;;;;4991281;28;20769;-71
2022/11/22 01:05:38;;;;;;;3.47;0.90;;;;;;;;;;4997790;28;20506;-69
2022/11/22 01:08:03;;;;;;;6.10;1.58;;;;;;;;;;4996143;28;20023;-69
2022/11/22 01:10:28;;;;;;;8.25;1.40;;;;;;;;;;4992777;28;20036;-70
2022/11/22 01:12:53;;;;;;;2.25;1.08;;;;;;;;;;4998673;28;20479;-73
2022/11/22 01:15:18;;;;;;;7.70;1.83;;;;;;;;;;4991007;28;20018;-69
2022/11/22 01:17:44;;;;;;;11.30;2.10;;;;;;;;;;4999129;28;20041;-72
2022/11/22 01:20:09;;;;;;;9.82;1.95;;;;;;;;;;4998285;28;20276;-69
2022/11/22 01:22:34;;;;;;;4.13;1.27;;;;;;;;;;5000414;28;20018;-70
2022/11/22 01:24:59;;;;;;;12.88;1.95;;;;;;;;;;5002839;28;20026;-69
2022/11/22 01:27:24;;;;;;;8.90;2.47;;;;;;;;;;4995946;28;20400;-70
2022/11/22 01:29:50;;;;;;;4.90;1.80;;;;;;;;;;4989596;28;20104;-69
2022/11/22 01:32:15;;;;;;;5.03;2.45;;;;;;;;;;4998246;28;20269;-70
2022/11/22 01:34:40;;;;;;;6.53;1.95;;;;;;;;;;4998824;28;20483;-71
2022/11/22 01:37:05;;;;;;;11.23;2.60;;;;;;;;;;5000758;28;20034;-69
2022/11/22 01:39:31;;;;;;;10.10;1.80;;;;;;;;;;4994262;28;20042;-69
2022/11/22 01:41:56;;;;;;;9.43;1.63;;;;;;;;;;4999093;28;20475;-69
2022/11/22 01:44:23;;;;;;;9.63;2.25;;;;;;;;;;4988208;28;20110;-69
2022/11/22 01:46:50;;;;;;;9.68;2.03;;;;;;;;;;5004727;28;21830;-69
2022/11/22 01:49:35;;;;;;;6.13;1.80;;;;;;;;;;5001192;28;20028;-70
2022/11/22 01:52:03;;;;;;;5.38;2.05;;;;;;;;;;4988727;28;20072;-69
2022/11/22 01:54:31;;;;;;;8.68;1.80;;;;;;;;;;4995768;28;20074;-70
2022/11/22 01:56:59;;;;;;;11.98;1.02;;;;;;;;;;4987290;28;20054;-70
2022/11/22 01:59:27;;;;;;;10.15;1.83;;;;;;;;;;4991970;28;20052;-70
2022/11/22 02:01:52;;;;;;;4.43;1.40;;;;;;;;;;4992043;28;20024;-71
2022/11/22 02:04:18;;;;;;;7.53;0.85;;;;;;;;;;4995928;28;20022;-70
2022/11/22 02:06:52;;;;;;;2.85;0.90;;;;;;;;;;5001867;28;20046;-69
2022/11/22 02:09:17;;;;;;;6.03;0.88;;;;;;;;;;4997239;28;20041;-69
2022/11/22 02:11:47;;;;;;;11.07;1.52;;;;;;;;;;4989477;28;20471;-69
2022/11/22 02:14:13;;;;;;;5.65;1.63;;;;;;;;;;4994145;28;20022;-69
2022/11/22 02:16:40;;;;;;;9.23;1.60;;;;;;;;;;4995351;28;20022;-69
2022/11/22 02:19:09;;;;;;;11.40;2.70;;;;;;;;;;5001185;28;20600;-69
2022/11/22 02:21:35;;;;;;;7.13;1.98;;;;;;;;;;4998792;28;20101;-69
2022/11/22 02:24:06;;;;;;;4.30;1.45;;;;;;;;;;4999511;28;20100;-70
2022/11/22 02:26:31;;;;;;;2.90;1.15;;;;;;;;;;4989163;28;20927;-71
2022/11/22 02:29:01;;;;;;;1.95;1.25;;;;;;;;;;4998429;28;20108;-69
2022/11/22 02:31:34;;;;;;;4.00;1.35;;;;;;;;;;4990052;28;20029;-71
2022/11/22 02:33:59;;;;;;;6.72;0.75;;;;;;;;;;4993300;28;20026;-69
2022/11/22 02:36:24;;;;;;;7.33;1.47;;;;;;;;;;4997722;28;20023;-71
2022/11/22 02:38:49;;;;;;;5.20;1.45;;;;;;;;;;4995531;28;20356;-69
2022/11/22 02:41:15;;;;;;;5.30;1.48;;;;;;;;;;4989172;28;20018;-71
2022/11/22 02:43:44;;;;;;;5.43;1.65;;;;;;;;;;4999689;28;20084;-69
2022/11/22 02:46:11;;;;;;;1.85;0.73;;;;;;;;;;4995387;28;20076;-70
2022/11/22 02:48:39;;;;;;;2.63;1.10;;;;;;;;;;4996441;28;20033;-70
2022/11/22 02:51:04;;;;;;;6.53;1.40;;;;;;;;;;4989493;28;20014;-69
2022/11/22 02:53:30;;;;;;;7.73;1.57;;;;;;;;;;4990622;28;20037;-69
2022/11/22 02:55:55;;;;;;;4.82;1.13;;;;;;;;;;4995486;28;20253;-69
2022/11/22 02:58:21;;;;;;;5.32;1.35;;;;;;;;;;4992400;28;20018;-69
2022/11/22 03:00:46;;;;;;;0.45;0.38;;;;;;;;;;5001208;28;20029;-69
2022/11/22 03:03:11;;;;;;;4.18;1.42;;;;;;;;;;4993222;28;20034;-71
2022/11/22 03:05:36;;;;;;;10.53;1.03;;;;;;;;;;4991231;28;20030;-69
2022/11/22 03:08:01;;;;;;;1.50;0.67;;;;;;;;;;4996526;28;20335;-71
2022/11/22 03:10:26;;;;;;;1.55;0.88;;;;;;;;;;4997858;28;20296;-69
2022/11/22 03:12:52;;;;;;;6.45;1.23;;;;;;;;;;4997306;28;20100;-69
2022/11/22 03:15:17;;;;;;;5.53;1.60;;;;;;;;;;4999343;28;20097;-70
2022/11/22 03:17:42;;;;;;;9.93;1.40;;;;;;;;;;4995302;28;20022;-69
2022/11/22 03:20:07;;;;;;;13.57;0.50;;;;;;;;;;4997721;28;20761;-69
2022/11/22 03:22:33;;;;;;;6.85;0.68;;;;;;;;;;4989984;28;20308;-69
2022/11/22 03:24:58;;;;;;;1.88;1.00;;;;;;;;;;5000992;28;20025;-69
2022/11/22 03:27:23;;;;;;;7.77;0.93;;;;;;;;;;4997614;28;20153;-74
2022/11/22 03:29:49;;;;;;;11.02;1.67;;;;;;;;;;4999769;28;20288;-69
2022/11/22 03:32:14;;;;;;;7.03;0.95;;;;;;;;;;4997694;28;20510;-70
2022/11/22 03:34:39;;;;;;;5.35;1.05;;;;;;;;;;4987304;28;20029;-69
2022/11/22 03:37:04;;;;;;;5.03;1.13;;;;;;;;;;4982972;28;20391;-71
2022/11/22 03:39:29;;;;;;;8.13;0.95;;;;;;;;;;4983497;28;20317;-70
2022/11/22 03:41:55;;;;;;;1.67;0.77;;;;;;;;;;4984525;28;20023;-70
2022/11/22 03:44:20;;;;;;;8.02;2.25;;;;;;;;;;4982351;28;20282;-70
2022/11/22 03:46:46;;;;;;;3.97;1.23;;;;;;;;;;4985786;28;20025;-70
2022/11/22 03:49:11;;;;;;;4.75;1.33;;;;;;;;;;4980962;28;20072;-70
2022/11/22 03:51:36;;;;;;;5.50;1.10;;;;;;;;;;4980631;28;20606;-69
2022/11/22 03:54:01;;;;;;;3.30;1.00;;;;;;;;;;4984522;28;20037;-69
2022/11/22 03:56:26;;;;;;;4.40;1.20;;;;;;;;;;4983110;28;20534;-69
2022/11/22 03:58:52;;;;;;;3.83;1.50;;;;;;;;;;4982858;28;20023;-69
2022/11/22 04:01:17;;;;;;;4.88;1.30;;;;;;;;;;4984617;28;20022;-70
2022/11/22 04:03:42;;;;;;;4.00;0.90;;;;;;;;;;4995161;28;20022;-70
2022/11/22 04:06:08;;;;;;;11.20;1.23;;;;;;;;;;4990075;28;20022;-72
2022/11/22 04:08:33;;;;;;;5.70;0.60;;;;;;;;;;4987833;28;20379;-69
2022/11/22 04:10:58;;;;;;;17.10;1.57;;;;;;;;;;4984330;28;20390;-69
2022/11/22 04:15:05;;;;;;;7.77;1.40;;;;;;;;;;4982686;28;20290;-69
2022/11/22 04:16:08;;;;;;;5.93;1.00;;;;;;;;;;4982838;28;20288;-69
2022/11/22 04:18:33;;;;;;;7.17;1.27;;;;;;;;;;4985603;28;20022;-69
2022/11/22 04:23:42;;;;;;;0.20;0.15;;;;;;;;;;4982285;28;20375;-68
2022/11/22 04:26:08;;;;;;;0.20;0.20;;;;;;;;;;4982106;28;20066;-71
2022/11/22 04:28:33;;;;;;;4.10;1.15;;;;;;;;;;4989097;28;20026;-69
2022/11/22 04:33:42;;;;;;;5.88;0.65;;;;;;;;;;4987543;28;20359;-69
2022/11/22 04:36:07;;;;;;;5.03;1.00;;;;;;;;;;4996304;28;20463;-69
2022/11/22 04:38:32;;;;;;;8.67;1.20;;;;;;;;;;4994934;28;20277;-69
2022/11/22 04:40:57;;;;;;;7.90;1.23;;;;;;;;;;4994792;28;20291;-71
2022/11/22 04:46:12;;;;;;;5.25;1.23;;;;;;;;;;4987478;28;20071;-69
2022/11/22 04:48:37;;;;;;;2.80;0.60;;;;;;;;;;4996526;28;20027;-69
2022/11/22 04:53:47;;;;;;;2.72;0.90;;;;;;;;;;4997923;28;20084;-70
2022/11/22 04:56:12;;;;;;;8.02;1.65;;;;;;;;;;4999160;28;20026;-69
2022/11/22 04:58:38;;;;;;;9.80;1.20;;;;;;;;;;5003445;28;20019;-69
2022/11/22 05:01:03;;;;;;;11.75;1.65;;;;;;;;;;4992208;28;20041;-71
2022/11/22 05:03:28;;;;;;;5.35;1.63;;;;;;;;;;4994529;28;20022;-69
2022/11/22 05:05:54;;;;;;;9.43;1.43;;;;;;;;;;4999474;28;20360;-69
2022/11/22 05:08:19;;;;;;;10.80;1.95;;;;;;;;;;4983142;28;20281;-70
2022/11/22 05:10:58;;;;;;;14.48;2.00;;;;;;;;;;4994628;28;20030;-71
2022/11/22 05:13:31;;;;;;;7.70;1.20;;;;;;;;;;4984436;28;20030;-69
2022/11/22 05:15:56;;;;;;;6.82;1.40;;;;;;;;;;4992945;28;20148;-70
2022/11/22 05:18:22;;;;;;;10.55;1.52;;;;;;;;;;5005439;28;20498;-70
2022/11/22 05:20:48;;;;;;;4.45;1.85;;;;;;;;;;4997342;28;20022;-70
2022/11/22 05:25:57;;;;;;;16.58;2.78;;;;;;;;;;4995902;28;20033;-69
2022/11/22 05:28:22;;;;;;;11.52;2.25;;;;;;;;;;4989987;28;20019;-71
2022/11/22 05:30:47;;;;;;;10.13;1.43;;;;;;;;;;4997662;28;20033;-70
2022/11/22 05:33:12;;;;;;;10.85;1.70;;;;;;;;;;4999704;28;20289;-70
2022/11/22 05:35:38;;;;;;;13.63;1.77;;;;;;;;;;4999808;28;20101;-70
2022/11/22 05:38:03;;;;;;;7.93;2.00;;;;;;;;;;4998603;28;20054;-70
2022/11/22 05:40:28;;;;;;;6.57;1.35;;;;;;;;;;4999001;28;20284;-70
2022/11/22 05:42:53;;;;;;;6.53;1.40;;;;;;;;;;4995707;28;20418;-70
2022/11/22 05:45:18;;;;;;;15.43;2.63;;;;;;;;;;4992900;28;20331;-70
2022/11/22 05:47:44;;;;;;;7.33;1.53;;;;;;;;;;5000470;28;20092;-70
2022/11/22 05:50:09;;;;;;;18.83;2.10;;;;;;;;;;4995068;28;20276;-70
2022/11/22 05:52:34;;;;;;;16.23;2.22;;;;;;;;;;4996899;28;20018;-70
2022/11/22 05:55:00;;;;;;;10.00;1.70;;;;;;;;;;5000335;28;20056;-70
2022/11/22 05:57:25;;;;;;;18.13;4.00;;;;;;;;;;4997203;28;20034;-73
2022/11/22 05:59:50;;;;;;;22.05;3.28;;;;;;;;;;4992857;28;20168;-70
2022/11/22 06:02:15;;;;;;;6.40;1.98;;;;;;;;;;5000615;28;20041;-70
2022/11/22 06:04:41;;;;;;;19.67;2.17;;;;;;;;;;4996719;28;20064;-70
2022/11/22 06:07:06;;;;;;;10.02;1.30;;;;;;;;;;4996915;28;20113;-70
2022/11/22 06:09:31;;;;;;;7.95;1.00;;;;;;;;;;4998559;28;20076;-69
2022/11/22 06:11:56;;;;;;;18.52;1.50;;;;;;;;;;5001978;28;20041;-69
2022/11/22 06:14:22;;;;;;;11.40;1.88;;;;;;;;;;4993295;28;20088;-69
2022/11/22 06:16:49;;;;;;;6.45;1.48;;;;;;;;;;4999680;28;20392;-69
2022/11/22 06:19:14;;;;;;;8.10;1.42;;;;;;;;;;5001462;28;20018;-69
2022/11/22 06:21:39;;;;;;;13.82;2.00;;;;;;;;;;5003335;28;20021;-69
2022/11/22 06:24:05;;;;;;;22.25;2.30;;;;;;;;;;4994723;28;20106;-70
2022/11/22 06:26:30;;;;;;;14.75;1.98;;;;;;;;;;5000723;28;20050;-70
2022/11/22 06:28:55;;;;;;;9.35;1.52;;;;;;;;;;5000810;28;20123;-69
2022/11/22 06:31:22;;;;;;;14.70;2.00;;;;;;;;;;4993869;28;20398;-69
2022/11/22 06:33:48;;;;;;;20.13;2.28;;;;;;;;;;5001338;28;20026;-69
2022/11/22 06:36:14;;;;;;;17.95;2.65;;;;;;;;;;4997520;28;20104;-69
2022/11/22 06:38:40;;;;;;;15.43;2.15;;;;;;;;;;4999729;28;20023;-69
2022/11/22 06:41:06;;;;;;;18.80;2.60;;;;;;;;;;4992641;28;20069;-69
2022/11/22 06:43:32;;;;;;;16.75;2.10;;;;;;;;;;4991155;28;20031;-69
2022/11/22 06:45:58;;;;;;;13.20;3.10;;;;;;;;;;4997520;28;20025;-71
2022/11/22 06:48:24;;;;;;;19.75;2.63;;;;;;;;;;4997186;28;20052;-70
2022/11/22 06:50:49;;;;;;;12.82;2.22;;;;;;;;;;4988486;28;20583;-71
2022/11/22 06:53:14;;;;;;;13.05;2.15;;;;;;;;;;4984241;28;20040;-69
2022/11/22 06:55:39;;;;;;;20.08;2.40;;;;;;;;;;4982521;28;20130;-71
2022/11/22 06:58:05;;;;;;;14.73;2.95;;;;;;;;;;4985908;28;20061;-69
2022/11/22 07:00:30;;;;;;;16.93;3.30;;;;;;;;;;4977344;28;20464;-72
2022/11/22 07:02:55;;;;;;;18.25;2.75;;;;;;;;;;4983490;28;20273;-69
2022/11/22 07:05:20;;;;;;;5.45;1.52;;;;;;;;;;4979938;28;20011;-70
2022/11/22 07:07:45;;;;;;;10.30;1.77;;;;;;;;;;4982683;28;20573;-71
2022/11/22 07:10:11;;;;;;;2.97;1.30;;;;;;;;;;4981920;28;20364;-69
2022/11/22 07:12:36;;;;;;;13.33;2.27;;;;;;;;;;4983724;28;21468;-70
2022/11/22 07:15:01;;;;;;;13.65;2.45;;;;;;;;;;4982293;28;20316;-69
2022/11/22 07:17:26;;;;;;;24.13;3.60;;;;;;;;;;4983955;28;20097;-69
2022/11/22 07:19:51;;;;;;;4.13;2.00;;;;;;;;;;4991604;28;20026;-69
2022/11/22 07:22:16;;;;;;;5.40;2.70;;;;;;;;;;4992230;28;20101;-69
2022/11/22 07:24:42;;;;;;;7.53;1.52;;;;;;;;;;4994387;28;20286;-69
2022/11/22 07:27:07;;;;;;;20.80;2.00;;;;;;;;;;4995119;28;20033;-69
2022/11/22 07:29:32;;;;;;;6.93;1.23;;;;;;;;;;4994094;28;20019;-69
2022/11/22 07:31:57;;;;;;;6.30;1.35;;;;;;;;;;4985624;28;20092;-69
2022/11/22 07:34:22;;;;;;;11.30;1.70;;;;;;;;;;4989658;28;20102;-69
2022/11/22 07:36:48;;;;;;;5.38;1.30;;;;;;;;;;4998658;28;20253;-69
2022/11/22 07:39:13;;;;;;;23.48;2.50;;;;;;;;;;4998725;28;20363;-70
2022/11/22 07:41:39;;;;;;;13.23;1.48;;;;;;;;;;4996992;28;20143;-70
2022/11/22 07:44:04;;;;;;;4.00;2.03;;;;;;;;;;4993543;28;20113;-70
2022/11/22 07:46:30;;;;;;;11.68;1.42;;;;;;;;;;4991613;28;20027;-70
2022/11/22 07:48:59;;;;;;;10.13;1.63;;;;;;;;;;4992099;28;20093;-69
2022/11/22 07:51:24;;;;;;;4.07;1.05;;;;;;;;;;4996147;28;20018;-70
2022/11/22 07:53:50;;;;;;;14.40;1.65;;;;;;;;;;4991168;28;20049;-69
2022/11/22 07:56:15;;;;;;;7.07;1.25;;;;;;;;;;4993619;28;20313;-69
2022/11/22 07:58:41;;;;;;;8.65;1.48;;;;;;;;;;4998170;28;20142;-69
2022/11/22 08:01:07;;;;;;;1.83;1.13;;;;;;;;;;4985726;28;20049;-69
2022/11/22 08:03:32;;;;;;;12.32;1.95;;;;;;;;;;4989362;28;20025;-69
2022/11/22 08:06:01;;;;;;;1.02;0.80;;;;;;;;;;4991609;28;20100;-69
2022/11/22 08:08:26;;;;;;;4.13;1.30;;;;;;;;;;4995908;28;20022;-69
2022/11/22 08:10:52;;;;;;;17.70;2.22;;;;;;;;;;4996446;28;20026;-69
2022/11/22 08:13:17;;;;;;;4.10;0.82;;;;;;;;;;4989639;28;20525;-69
2022/11/22 08:15:42;;;;;;;9.40;1.47;;;;;;;;;;4985020;28;20029;-69
2022/11/22 08:18:07;;;;;;;10.00;1.77;;;;;;;;;;4987019;28;20405;-69
2022/11/22 08:20:32;;;;;;;7.13;1.33;;;;;;;;;;4987728;28;20278;-69
2022/11/22 08:22:58;;;;;;;9.57;1.37;;;;;;;;;;4987381;28;20658;-69
2022/11/22 08:25:23;;;;;;;5.57;1.40;;;;;;;;;;4995275;28;20304;-69
2022/11/22 08:27:48;;;;;;;5.90;1.67;;;;;;;;;;4992667;28;20326;-69
2022/11/22 08:30:13;;;;;;;12.93;1.70;;;;;;;;;;4998426;28;20025;-69
2022/11/22 08:32:39;;;;;;;10.93;1.52;;;;;;;;;;4997069;28;20361;-69
2022/11/22 08:35:04;;;;;;;7.95;1.30;;;;;;;;;;5002013;28;20050;-69
2022/11/22 08:37:29;;;;;;;1.95;0.82;;;;;;;;;;4996252;28;20069;-70
2022/11/22 08:39:55;;;;;;;6.45;1.55;;;;;;;;;;4996775;28;20068;-69
2022/11/22 08:42:20;;;;;;;7.47;1.25;;;;;;;;;;4998599;28;20015;-70
2022/11/22 08:44:45;;;;;;;11.20;1.40;;;;;;;;;;5002032;28;20081;-71
2022/11/22 08:47:11;;;;;;;3.20;1.10;;;;;;;;;;5001110;28;20398;-69
2022/11/22 08:49:36;;;;;;;10.23;1.75;;;;;;;;;;5001972;28;20318;-71
2022/11/22 08:52:01;;;;;;;9.23;1.75;;;;;;;;;;4993788;28;20525;-70
2022/11/22 08:54:27;;;;;;;7.95;1.67;;;;;;;;;;4998930;28;20029;-69
2022/11/22 08:56:52;;;;;;;2.55;0.93;;;;;;;;;;4996190;28;20647;-70
2022/11/22 08:59:17;;;;;;;6.97;1.10;;;;;;;;;;4997968;28;20022;-69
2022/11/22 09:01:42;;;;;;;7.82;1.17;;;;;;;;;;4997731;28;20052;-70
2022/11/22 09:04:07;;;;;;;6.57;0.82;;;;;;;;;;5001085;28;20022;-69
2022/11/22 09:06:33;;;;;;;7.38;1.52;;;;;;;;;;4997594;28;20018;-70
2022/11/22 09:08:58;;;;;;;7.07;1.17;;;;;;;;;;5001108;28;20018;-70
2022/11/22 09:11:23;;;;;;;3.40;1.42;;;;;;;;;;4996407;28;20025;-70
2022/11/22 09:13:48;;;;;;;11.98;2.03;;;;;;;;;;4996078;28;20027;-69
2022/11/22 09:16:15;;;;;;;2.33;0.77;;;;;;;;;;4993745;28;20094;-70
2022/11/22 09:18:41;;;;;;;1.80;1.40;;;;;;;;;;4999495;28;20254;-69
2022/11/22 09:21:08;;;;;;;10.90;2.65;;;;;;;;;;4995106;28;20079;-69
2022/11/22 09:23:34;;;;;;;8.27;1.25;;;;;;;;;;4998412;28;20034;-69
2022/11/22 09:26:06;;;;;;;7.45;1.23;;;;;;;;;;4997551;28;20033;-69
2022/11/22 09:28:31;;;;;;;12.82;1.60;;;;;;;;;;4998984;28;20054;-70
2022/11/22 09:31:00;;;;;;;7.05;1.15;;;;;;;;;;4994188;28;20053;-69
2022/11/22 09:33:25;;;;;;;1.80;0.60;;;;;;;;;;4999914;28;20025;-70
2022/11/22 09:35:50;;;;;;;11.20;1.30;;;;;;;;;;4999895;28;20026;-69
2022/11/22 09:38:15;;;;;;;12.85;1.95;;;;;;;;;;4999822;28;20022;-69
2022/11/22 09:40:44;;;;;;;12.37;1.80;;;;;;;;;;5000135;28;20034;-69
2022/11/22 09:43:21;;;;;;;4.03;2.20;;;;;;;;;;4990736;28;20829;-69
2022/11/22 09:45:52;;;;;;;6.13;0.85;;;;;;;;;;4997621;28;20506;-69
2022/11/22 09:48:26;;;;;;;3.00;0.80;;;;;;;;;;4999941;28;20533;-69
2022/11/22 09:50:57;;;;;;;9.05;1.90;;;;;;;;;;4993252;28;20025;-70
2022/11/22 09:53:31;;;;;;;15.15;1.95;;;;;;;;;;4993198;28;20110;-70
2022/11/22 09:55:59;;;;;;;12.20;1.67;;;;;;;;;;4991585;28;20030;-70
2022/11/22 09:58:42;;;;;;;5.60;1.15;;;;;;;;;;4992920;28;20014;-70
2022/11/22 10:01:30;;;;;;;11.27;1.35;;;;;;;;;;4986004;28;20038;-69
2022/11/22 10:04:15;;;;;;;5.00;0.98;;;;;;;;;;4995239;28;20375;-70
2022/11/22 10:06:41;;;;;;;10.65;1.55;;;;;;;;;;4995467;28;20078;-70
2022/11/22 10:09:26;;;;;;;7.88;1.42;;;;;;;;;;5001147;28;20106;-69
2022/11/22 10:11:51;;;;;;;6.10;0.77;;;;;;;;;;4984354;28;20025;-70
2022/11/22 10:14:30;;;;;;;2.28;0.85;;;;;;;;;;4994750;28;20038;-69
2022/11/22 10:17:03;;;;;;;6.45;1.05;;;;;;;;;;4992128;28;20271;-69
2022/11/22 10:19:33;;;;;;;3.28;1.02;;;;;;;;;;4982316;28;20007;-69
2022/11/22 10:21:59;;;;;;;13.10;1.77;;;;;;;;;;4994499;28;20064;-69
2022/11/22 10:24:24;;;;;;;10.55;1.20;;;;;;;;;;4990297;28;20029;-69
2022/11/22 10:26:49;;;;;;;6.82;1.60;;;;;;;;;;4993925;28;20026;-69
2022/11/22 10:29:33;;;;;;;8.05;1.85;;;;;;;;;;4988268;28;20035;-70
2022/11/22 10:31:59;;;;;;;5.63;1.40;;;;;;;;;;5000492;28;20022;-69
2022/11/22 10:34:44;;;;;;;5.40;0.82;;;;;;;;;;4993908;28;20085;-70
2022/11/22 10:37:09;;;;;;;4.95;0.98;;;;;;;;;;4992290;28;20502;-70
2022/11/22 10:39:40;;;;;;;5.38;1.05;;;;;;;;;;4995738;28;20031;-70
2022/11/22 10:42:05;;;;;;;2.35;0.93;;;;;;;;;;4994794;28;20041;-69
2022/11/22 10:44:46;;;;;;;4.38;1.10;;;;;;;;;;4992619;28;20037;-70
2022/11/22 10:47:15;;;;;;;12.38;1.33;;;;;;;;;;4993659;28;20026;-68
2022/11/22 10:49:52;;;;;;;7.20;1.38;;;;;;;;;;4992039;28;20034;-70
2022/11/22 10:52:17;;;;;;;5.88;0.98;;;;;;;;;;4998380;28;20038;-68
2022/11/22 10:55:01;;;;;;;3.95;0.95;;;;;;;;;;4997784;28;20455;-70
2022/11/22 10:57:48;;;;;;;3.00;0.85;;;;;;;;;;4990320;28;20047;-69
2022/11/22 11:00:19;;;;;;;1.98;0.60;;;;;;;;;;4986654;28;20025;-70
2022/11/22 11:03:00;;;;;;;3.33;0.73;;;;;;;;;;4988283;28;20092;-70
2022/11/22 11:05:31;;;;;;;3.22;0.98;;;;;;;;;;5000622;28;20098;-70
2022/11/22 11:07:58;;;;;;;7.72;1.02;;;;;;;;;;5000013;28;20030;-70
2022/11/22 11:10:24;;;;;;;3.67;0.40;;;;;;;;;;4996210;28;20027;-69
2022/11/22 11:12:55;;;;;;;9.02;1.20;;;;;;;;;;4989222;28;20647;-70
2022/11/22 11:15:27;;;;;;;5.50;0.82;;;;;;;;;;4994533;28;20037;-70
2022/11/22 11:17:54;;;;;;;3.38;0.98;;;;;;;;;;4990642;28;20019;-70
2022/11/22 11:20:25;;;;;;;6.45;1.15;;;;;;;;;;4992980;28;20554;-70
2022/11/22 11:22:50;;;;;;;5.68;0.85;;;;;;;;;;5001444;28;20030;-70
2022/11/22 11:25:39;;;;;;;4.65;0.70;;;;;;;;;;4995596;28;20030;-70
2022/11/22 11:28:06;;;;;;;7.20;1.80;;;;;;;;;;4995289;28;20101;-70
2022/11/22 11:30:37;;;;;;;9.63;1.33;;;;;;;;;;4994218;28;20416;-70
2022/11/22 11:33:10;;;;;;;8.18;0.73;;;;;;;;;;4989393;28;20045;-69
2022/11/22 11:35:35;;;;;;;0.80;0.30;;;;;;;;;;4997274;28;20018;-70
2022/11/22 11:38:00;;;;;;;9.38;0.65;;;;;;;;;;4998377;28;20104;-70
2022/11/22 11:40:30;;;;;;;0.55;0.28;;;;;;;;;;4991546;28;20550;-70
2022/11/22 11:43:11;;;;;;;11.25;1.30;;;;;;;;;;4997708;28;20105;-70
2022/11/22 11:45:36;;;;;;;;;;;;;;;;;;4994820;28;20038;-69
2022/11/22 11:48:01;;;;;;;4.93;0.70;;;;;;;;;;4996983;28;19932;-68
2022/11/22 11:50:28;;;;;;;0.30;0.20;;;;;;;;;;4995728;28;20114;-70
2022/11/22 11:52:55;;;;;;;7.65;1.20;;;;;;;;;;5000601;28;20164;-68
2022/11/22 11:55:20;;;;;;;6.13;1.45;;;;;;;;;;4997559;28;20491;-69
2022/11/22 11:57:47;;;;;;;4.57;1.13;;;;;;;;;;4995152;28;20018;-69
2022/11/22 12:00:25;;;;;;;6.50;1.27;;;;;;;;;;4991279;28;20558;-69
2022/11/22 12:02:55;;;;;;;4.93;0.90;;;;;;;;;;4989169;28;20495;-69
2022/11/22 12:05:31;;;;;;;8.52;1.42;;;;;;;;;;4993069;28;20041;-69
2022/11/22 12:07:56;;;;;;;4.00;0.70;;;;;;;;;;4987500;28;20030;-70
2022/11/22 12:10:31;;;;;;;2.60;0.38;;;;;;;;;;4990893;28;20561;-68
2022/11/22 12:12:56;;;;;;;7.20;0.65;;;;;;;;;;4996264;28;20018;-71
2022/11/22 12:15:25;;;;;;;2.10;0.43;;;;;;;;;;4987710;28;20034;-68
2022/11/22 12:17:59;;;;;;;2.00;0.63;;;;;;;;;;4990528;28;20022;-69
2022/11/22 12:20:29;;;;;;;3.03;0.95;;;;;;;;;;4989759;28;20109;-68
2022/11/22 12:23:06;;;;;;;4.77;1.17;;;;;;;;;;4989170;28;20086;-68
2022/11/22 12:25:34;;;;;;;2.42;1.02;;;;;;;;;;4985855;28;20026;-69
2022/11/22 12:28:02;;;;;;;7.13;0.82;;;;;;;;;;4985424;28;20050;-68
2022/11/22 12:30:27;;;;;;;2.17;0.85;;;;;;;;;;4989373;28;20038;-68
2022/11/22 12:33:05;;;;;;;5.47;1.02;;;;;;;;;;4991960;28;20104;-69
2022/11/22 12:35:38;;;;;;;0.85;0.28;;;;;;;;;;4984572;28;20022;-68
2022/11/22 12:38:11;;;;;;;2.97;0.75;;;;;;;;;;4984212;28;20022;-69
2022/11/22 12:40:41;;;;;;;0.40;0.40;;;;;;;;;;4987547;28;20097;-68
2022/11/22 12:43:10;;;;;;;1.60;0.40;;;;;;;;;;4987615;28;20483;-68
2022/11/22 12:45:43;;;;;;;5.07;1.02;;;;;;;;;;4993552;28;20165;-68
2022/11/22 12:48:17;;;;;;;4.55;0.93;;;;;;;;;;4992965;28;20457;-69
2022/11/22 12:50:51;;;;;;;5.00;1.67;;;;;;;;;;4992664;28;20014;-69
2022/11/22 12:53:36;;;;;;;1.15;0.85;;;;;;;;;;4989853;28;20033;-69
2022/11/22 12:56:13;;;;;;;17.40;1.48;;;;;;;;;;4988487;28;20585;-69
2022/11/22 12:58:43;;;;;;;6.97;0.43;;;;;;;;;;4993879;28;20419;-69
2022/11/22 13:01:13;;;;;;;2.70;0.90;;;;;;;;;;4991137;28;20042;-69
2022/11/22 13:03:56;;;;;;;2.17;1.10;;;;;;;;;;4994413;28;20026;-69
2022/11/22 13:06:23;;;;;;;6.70;0.40;;;;;;;;;;4993958;28;20022;-69
2022/11/22 13:08:56;;;;;;;3.38;0.60;;;;;;;;;;4986460;28;20046;-69
2022/11/22 13:11:27;;;;;;;5.65;0.35;;;;;;;;;;4995012;28;20085;-69
2022/11/22 13:13:55;;;;;;;0.73;0.30;;;;;;;;;;4998383;28;20022;-69
2022/11/22 13:16:20;;;;;;;3.00;0.55;;;;;;;;;;4999059;28;20030;-69
2022/11/22 13:19:06;;;;;;;2.63;0.65;;;;;;;;;;5001972;28;20017;-70
2022/11/22 13:21:40;;;;;;;0.40;0.30;;;;;;;;;;5001420;28;20113;-69
2022/11/22 13:24:11;;;;;;;1.15;0.50;;;;;;;;;;5000030;28;20483;-71
2022/11/22 13:26:49;;;;;;;2.08;0.52;;;;;;;;;;4991957;28;20019;-70
2022/11/22 13:29:22;;;;;;;0.35;0.35;;;;;;;;;;4999704;28;20022;-71
2022/11/22 13:32:00;;;;;;;5.00;1.33;;;;;;;;;;4997786;28;20018;-72
2022/11/22 13:34:25;;;;;;;3.65;0.60;;;;;;;;;;4992587;28;20018;-72
2022/11/22 13:36:51;;;;;;;0.40;0.30;;;;;;;;;;4993498;28;20014;-69
2022/11/22 13:39:18;;;;;;;1.52;0.43;;;;;;;;;;4990569;28;20351;-69
2022/11/22 13:41:55;;;;;;;1.60;0.47;;;;;;;;;;4997234;28;20022;-69
2022/11/22 13:44:20;;;;;;;3.25;1.23;;;;;;;;;;4997588;28;20109;-69
2022/11/22 13:46:49;;;;;;;2.42;0.40;;;;;;;;;;4997151;28;20054;-69
2022/11/22 13:49:34;;;;;;;0.13;0.13;;;;;;;;;;4996578;28;20053;-70
2022/11/22 13:52:00;;;;;;;8.32;1.05;;;;;;;;;;4989714;28;20654;-69
2022/11/22 13:54:35;;;;;;;1.13;0.50;;;;;;;;;;4993772;28;20101;-70
2022/11/22 13:57:03;;;;;;;2.05;0.70;;;;;;;;;;4994584;28;20026;-69
2022/11/22 13:59:28;;;;;;;3.08;0.70;;;;;;;;;;4986669;28;20073;-69
2022/11/22 14:01:54;;;;;;;1.75;0.63;;;;;;;;;;4990322;28;20089;-71
2022/11/22 14:04:23;;;;;;;0.65;0.40;;;;;;;;;;4992714;28;20105;-69
2022/11/22 14:06:49;;;;;;;1.38;0.30;;;;;;;;;;4990033;28;20054;-70
2022/11/22 14:09:15;;;;;;;0.75;0.25;;;;;;;;;;4990778;28;20025;-68
2022/11/22 14:11:56;;;;;;;2.00;0.50;;;;;;;;;;4994505;28;20041;-71
2022/11/22 14:14:40;;;;;;;2.65;0.50;;;;;;;;;;4984650;28;20015;-71
2022/11/22 14:17:13;;;;;;;4.90;0.47;;;;;;;;;;4998194;28;20022;-71
2022/11/22 14:19:45;;;;;;;2.97;0.30;;;;;;;;;;4997631;28;20018;-69
2022/11/22 14:22:19;;;;;;;1.42;0.32;;;;;;;;;;4995691;28;20053;-69
2022/11/22 14:24:55;;;;;;;0.20;0.20;;;;;;;;;;4997121;28;20404;-69
2022/11/22 14:27:39;;;;;;;0.30;0.20;;;;;;;;;;4990079;28;20411;-68
2022/11/22 14:30:04;;;;;;;1.38;0.28;;;;;;;;;;4994034;28;20487;-69
2022/11/22 14:32:41;;;;;;;0.98;0.40;;;;;;;;;;4996291;28;20025;-69
2022/11/22 14:35:15;;;;;;;0.77;0.45;;;;;;;;;;4996650;28;20022;-68
2022/11/22 14:37:45;;;;;;;14.80;2.45;;;;;;;;;;4993966;28;20097;-68
2022/11/22 14:40:14;;;;;;;1.05;0.30;;;;;;;;;;4988820;28;20153;-73
2022/11/22 14:42:42;;;;;;;0.32;0.28;;;;;;;;;;4985200;28;20503;-70
2022/11/22 14:45:10;;;;;;;1.35;0.30;;;;;;;;;;4991956;28;20067;-70
2022/11/22 14:47:50;;;;;;;7.88;0.30;;;;;;;;;;4991836;28;20033;-70
2022/11/22 14:50:15;;;;;;;;;;;;;;;;;;4992005;28;20085;-70
2022/11/22 14:52:42;;;;;;;1.92;0.60;;;;;;;;;;4991002;28;19910;-70
2022/11/22 14:55:13;;;;;;;5.88;0.65;;;;;;;;;;4993524;28;20408;-71
2022/11/22 14:57:38;;;;;;;0.30;0.13;;;;;;;;;;4994735;28;20022;-71